sensor_id;sensor_type;location;lat;lon;timestamp;pressure;altitude;pressure_sealevel;temperature;humidity
32320;BME280;19080;51.750;5.888;2023-04-26T00:02:15;101613.53;;;0.35;100.00
32320;BME280;19080;51.750;5.888;2023-04-26T00:04:43;101725.09;;;1.00;100.00
32320;BME280;19080;51.750;5.888;2023-04-26T00:07:12;101631.53;;;0.43;100.00
32320;BME280;19080;51.750;5.888;2023-04-26T00:09:39;101729.69;;;0.91;100.00
32320;BME280;19080;51.750;5.888;2023-04-26T00:12:07;101729.06;;;0.82;100.00
32320;BME280;19080;51.750;5.888;2023-04-26T00:14:34;101725.88;;;0.86;100.00
32320;BME280;19080;51.750;5.888;2023-04-26T00:17:00;101626.03;;;0.27;100.00
32320;BME280;19080;51.750;5.888;2023-04-26T00:19:29;101724.06;;;0.85;100.00
32320;BME280;19080;51.750;5.888;2023-04-26T00:21:56;101740.16;;;0.91;100.00
32320;BME280;19080;51.750;5.888;2023-04-26T00:24:22;101632.28;;;0.29;100.00
32320;BME280;19080;51.750;5.888;2023-04-26T00:26:52;101703.28;;;0.61;100.00
32320;BME280;19080;51.750;5.888;2023-04-26T00:29:19;101730.25;;;0.74;100.00
32320;BME280;19080;51.750;5.888;2023-04-26T00:31:46;101729.16;;;0.70;100.00
32320;BME280;19080;51.750;5.888;2023-04-26T00:34:13;101719.19;;;0.64;100.00
32320;BME280;19080;51.750;5.888;2023-04-26T00:36:39;101725.31;;;0.65;100.00
32320;BME280;19080;51.750;5.888;2023-04-26T00:39:06;101716.16;;;0.58;100.00
32320;BME280;19080;51.750;5.888;2023-04-26T00:41:34;101714.53;;;0.60;100.00
32320;BME280;19080;51.750;5.888;2023-04-26T00:44:00;101736.47;;;0.62;100.00
32320;BME280;19080;51.750;5.888;2023-04-26T00:46:27;101736.97;;;0.70;100.00
32320;BME280;19080;51.750;5.888;2023-04-26T00:48:54;101717.97;;;0.59;100.00
32320;BME280;19080;51.750;5.888;2023-04-26T00:51:21;101699.03;;;0.50;100.00
32320;BME280;19080;51.750;5.888;2023-04-26T00:53:48;101649.13;;;0.21;100.00
32320;BME280;19080;51.750;5.888;2023-04-26T00:56:15;101721.97;;;0.54;100.00
32320;BME280;19080;51.750;5.888;2023-04-26T00:58:42;101589.59;;;-0.35;100.00
32320;BME280;19080;51.750;5.888;2023-04-26T01:01:08;101722.88;;;0.30;100.00
32320;BME280;19080;51.750;5.888;2023-04-26T01:03:35;101649.25;;;-0.03;100.00
32320;BME280;19080;51.750;5.888;2023-04-26T01:06:02;101724.19;;;0.37;100.00
32320;BME280;19080;51.750;5.888;2023-04-26T01:08:29;101736.78;;;0.42;100.00
32320;BME280;19080;51.750;5.888;2023-04-26T01:10:57;101624.91;;;-0.15;100.00
32320;BME280;19080;51.750;5.888;2023-04-26T01:13:24;101733.09;;;0.52;100.00
32320;BME280;19080;51.750;5.888;2023-04-26T01:15:52;101733.41;;;0.56;100.00
32320;BME280;19080;51.750;5.888;2023-04-26T01:18:20;101614.25;;;-0.18;100.00
32320;BME280;19080;51.750;5.888;2023-04-26T01:20:46;101731.56;;;0.42;100.00
32320;BME280;19080;51.750;5.888;2023-04-26T01:23:13;101716.25;;;0.35;100.00
32320;BME280;19080;51.750;5.888;2023-04-26T01:25:40;101735.72;;;0.52;100.00
32320;BME280;19080;51.750;5.888;2023-04-26T01:28:07;101631.94;;;-0.14;100.00
32320;BME280;19080;51.750;5.888;2023-04-26T01:30:34;101706.06;;;0.26;100.00
32320;BME280;19080;51.750;5.888;2023-04-26T01:33:01;101743.59;;;0.40;100.00
32320;BME280;19080;51.750;5.888;2023-04-26T01:35:28;101721.63;;;0.25;100.00
32320;BME280;19080;51.750;5.888;2023-04-26T01:37:55;101746.84;;;0.49;100.00
32320;BME280;19080;51.750;5.888;2023-04-26T01:40:22;101745.41;;;0.41;100.00
32320;BME280;19080;51.750;5.888;2023-04-26T01:42:48;101746.78;;;0.36;100.00
32320;BME280;19080;51.750;5.888;2023-04-26T01:45:15;101648.97;;;-0.19;100.00
32320;BME280;19080;51.750;5.888;2023-04-26T01:48:01;101738.97;;;0.36;100.00
32320;BME280;19080;51.750;5.888;2023-04-26T01:50:30;101739.75;;;0.35;100.00
32320;BME280;19080;51.750;5.888;2023-04-26T01:52:57;101714.75;;;0.14;100.00
32320;BME280;19080;51.750;5.888;2023-04-26T01:55:24;101600.06;;;-0.46;100.00
32320;BME280;19080;51.750;5.888;2023-04-26T01:57:50;101745.41;;;0.41;100.00
32320;BME280;19080;51.750;5.888;2023-04-26T02:00:17;101728.41;;;0.35;100.00
32320;BME280;19080;51.750;5.888;2023-04-26T02:02:47;101592.78;;;-0.39;100.00
32320;BME280;19080;51.750;5.888;2023-04-26T02:05:14;101730.22;;;0.36;100.00
32320;BME280;19080;51.750;5.888;2023-04-26T02:07:41;101736.56;;;0.39;100.00
32320;BME280;19080;51.750;5.888;2023-04-26T02:10:07;101720.41;;;0.20;100.00
32320;BME280;19080;51.750;5.888;2023-04-26T02:12:34;101634.59;;;-0.25;100.00
32320;BME280;19080;51.750;5.888;2023-04-26T02:15:01;101727.50;;;0.34;100.00
32320;BME280;19080;51.750;5.888;2023-04-26T02:17:27;101676.84;;;-0.06;100.00
32320;BME280;19080;51.750;5.888;2023-04-26T02:19:54;101626.66;;;-0.27;100.00
32320;BME280;19080;51.750;5.888;2023-04-26T02:22:22;101703.50;;;0.15;100.00
32320;BME280;19080;51.750;5.888;2023-04-26T02:24:50;101731.06;;;0.23;100.00
32320;BME280;19080;51.750;5.888;2023-04-26T02:27:18;101742.31;;;0.22;100.00
32320;BME280;19080;51.750;5.888;2023-04-26T02:29:45;101740.72;;;0.24;100.00
32320;BME280;19080;51.750;5.888;2023-04-26T02:32:12;101711.94;;;0.11;100.00
32320;BME280;19080;51.750;5.888;2023-04-26T02:34:39;101726.41;;;0.19;100.00
32320;BME280;19080;51.750;5.888;2023-04-26T02:37:07;101738.91;;;0.23;100.00
32320;BME280;19080;51.750;5.888;2023-04-26T02:39:35;101717.34;;;0.14;100.00
32320;BME280;19080;51.750;5.888;2023-04-26T02:42:07;101745.34;;;0.28;100.00
32320;BME280;19080;51.750;5.888;2023-04-26T02:44:33;101724.59;;;0.18;100.00
32320;BME280;19080;51.750;5.888;2023-04-26T02:47:01;101689.09;;;-0.05;100.00
32320;BME280;19080;51.750;5.888;2023-04-26T02:49:29;101733.66;;;0.23;100.00
32320;BME280;19080;51.750;5.888;2023-04-26T02:51:55;101735.47;;;0.24;100.00
32320;BME280;19080;51.750;5.888;2023-04-26T02:54:22;101739.13;;;0.26;100.00
32320;BME280;19080;51.750;5.888;2023-04-26T02:56:50;101728.66;;;0.26;100.00
32320;BME280;19080;51.750;5.888;2023-04-26T02:59:17;101690.41;;;0.02;100.00
32320;BME280;19080;51.750;5.888;2023-04-26T03:01:43;101736.72;;;0.29;100.00
32320;BME280;19080;51.750;5.888;2023-04-26T03:04:10;101673.69;;;-0.14;100.00
32320;BME280;19080;51.750;5.888;2023-04-26T03:06:37;101708.28;;;0.09;100.00
32320;BME280;19080;51.750;5.888;2023-04-26T03:09:04;101719.59;;;0.21;100.00
32320;BME280;19080;51.750;5.888;2023-04-26T03:11:31;101716.78;;;0.18;100.00
32320;BME280;19080;51.750;5.888;2023-04-26T03:13:58;101707.28;;;0.07;100.00
32320;BME280;19080;51.750;5.888;2023-04-26T03:16:26;101674.91;;;-0.09;100.00
32320;BME280;19080;51.750;5.888;2023-04-26T03:18:53;101666.44;;;-0.18;100.00
32320;BME280;19080;51.750;5.888;2023-04-26T03:21:20;101724.19;;;0.12;100.00
32320;BME280;19080;51.750;5.888;2023-04-26T03:23:47;101728.50;;;0.11;100.00
32320;BME280;19080;51.750;5.888;2023-04-26T03:26:14;101629.53;;;-0.47;100.00
32320;BME280;19080;51.750;5.888;2023-04-26T03:28:41;101725.72;;;-0.04;100.00
32320;BME280;19080;51.750;5.888;2023-04-26T03:31:07;101617.09;;;-0.63;100.00
32320;BME280;19080;51.750;5.888;2023-04-26T03:33:34;101687.78;;;-0.23;100.00
32320;BME280;19080;51.750;5.888;2023-04-26T03:36:01;101698.22;;;-0.23;100.00
32320;BME280;19080;51.750;5.888;2023-04-26T03:38:27;101707.72;;;-0.12;100.00
32320;BME280;19080;51.750;5.888;2023-04-26T03:40:54;101714.28;;;-0.06;100.00
32320;BME280;19080;51.750;5.888;2023-04-26T03:43:22;101696.16;;;-0.16;100.00
32320;BME280;19080;51.750;5.888;2023-04-26T03:45:48;101697.50;;;-0.09;100.00
32320;BME280;19080;51.750;5.888;2023-04-26T03:48:15;101703.19;;;-0.15;100.00
32320;BME280;19080;51.750;5.888;2023-04-26T03:50:44;101717.03;;;-0.16;100.00
32320;BME280;19080;51.750;5.888;2023-04-26T03:53:11;101713.41;;;-0.29;100.00
32320;BME280;19080;51.750;5.888;2023-04-26T03:55:38;101390.28;;;-2.21;100.00
32320;BME280;19080;51.750;5.888;2023-04-26T03:58:05;101701.88;;;-0.45;100.00
32320;BME280;19080;51.750;5.888;2023-04-26T04:00:36;101645.91;;;-0.61;100.00
32320;BME280;19080;51.750;5.888;2023-04-26T04:03:03;101699.66;;;-0.15;100.00
32320;BME280;19080;51.750;5.888;2023-04-26T04:05:31;101697.41;;;-0.22;100.00
32320;BME280;19080;51.750;5.888;2023-04-26T04:07:58;101674.19;;;-0.31;100.00
32320;BME280;19080;51.750;5.888;2023-04-26T04:10:25;101713.41;;;-0.18;100.00
32320;BME280;19080;51.750;5.888;2023-04-26T04:12:52;101706.16;;;-0.22;100.00
32320;BME280;19080;51.750;5.888;2023-04-26T04:15:19;101699.34;;;-0.20;100.00
32320;BME280;19080;51.750;5.888;2023-04-26T04:17:47;101702.53;;;-0.24;100.00
32320;BME280;19080;51.750;5.888;2023-04-26T04:20:14;101720.66;;;-0.14;100.00
32320;BME280;19080;51.750;5.888;2023-04-26T04:22:41;101679.88;;;-0.37;100.00
32320;BME280;19080;51.750;5.888;2023-04-26T04:25:08;101684.19;;;-0.37;100.00
32320;BME280;19080;51.750;5.888;2023-04-26T04:27:39;101621.75;;;-0.59;100.00
32320;BME280;19080;51.750;5.888;2023-04-26T04:30:08;101707.81;;;-0.11;100.00
32320;BME280;19080;51.750;5.888;2023-04-26T04:32:35;101711.44;;;-0.09;100.00
32320;BME280;19080;51.750;5.888;2023-04-26T04:35:02;101723.75;;;0.06;100.00
32320;BME280;19080;51.750;5.888;2023-04-26T04:37:29;101689.78;;;-0.08;100.00
32320;BME280;19080;51.750;5.888;2023-04-26T04:39:59;101569.84;;;-0.68;100.00
32320;BME280;19080;51.750;5.888;2023-04-26T04:42:26;101723.91;;;0.20;100.00
32320;BME280;19080;51.750;5.888;2023-04-26T04:44:55;101709.84;;;0.18;100.00
32320;BME280;19080;51.750;5.888;2023-04-26T04:47:23;101638.31;;;-0.22;100.00
32320;BME280;19080;51.750;5.888;2023-04-26T04:49:51;101720.47;;;0.33;100.00
32320;BME280;19080;51.750;5.888;2023-04-26T04:52:19;101703.56;;;0.28;100.00
32320;BME280;19080;51.750;5.888;2023-04-26T04:54:49;101708.22;;;0.32;100.00
32320;BME280;19080;51.750;5.888;2023-04-26T04:57:15;101646.03;;;0.02;100.00
32320;BME280;19080;51.750;5.888;2023-04-26T04:59:44;101741.91;;;0.65;100.00
32320;BME280;19080;51.750;5.888;2023-04-26T05:02:11;101739.31;;;0.79;100.00
32320;BME280;19080;51.750;5.888;2023-04-26T05:04:38;101632.19;;;0.27;100.00
32320;BME280;19080;51.750;5.888;2023-04-26T05:07:05;101709.78;;;0.80;100.00
32320;BME280;19080;51.750;5.888;2023-04-26T05:09:33;101723.38;;;0.87;100.00
32320;BME280;19080;51.750;5.888;2023-04-26T05:12:00;101734.75;;;1.01;100.00
32320;BME280;19080;51.750;5.888;2023-04-26T05:14:28;101661.72;;;0.64;100.00
32320;BME280;19080;51.750;5.888;2023-04-26T05:16:55;101738.41;;;1.29;100.00
32320;BME280;19080;51.750;5.888;2023-04-26T05:19:22;101726.84;;;1.39;100.00
32320;BME280;19080;51.750;5.888;2023-04-26T05:21:48;101734.19;;;1.58;100.00
32320;BME280;19080;51.750;5.888;2023-04-26T05:24:15;101752.88;;;1.77;100.00
32320;BME280;19080;51.750;5.888;2023-04-26T05:26:42;101681.88;;;1.58;100.00
32320;BME280;19080;51.750;5.888;2023-04-26T05:29:28;101745.38;;;2.10;100.00
32320;BME280;19080;51.750;5.888;2023-04-26T05:32:21;101742.00;;;2.25;100.00
32320;BME280;19080;51.750;5.888;2023-04-26T05:34:55;101765.97;;;2.59;100.00
32320;BME280;19080;51.750;5.888;2023-04-26T05:37:22;101757.78;;;2.83;100.00
32320;BME280;19080;51.750;5.888;2023-04-26T05:39:48;101741.09;;;2.96;100.00
32320;BME280;19080;51.750;5.888;2023-04-26T05:42:16;101755.84;;;3.38;100.00
32320;BME280;19080;51.750;5.888;2023-04-26T05:44:43;101760.84;;;3.64;100.00
32320;BME280;19080;51.750;5.888;2023-04-26T05:47:11;101763.06;;;3.87;100.00
32320;BME280;19080;51.750;5.888;2023-04-26T05:49:37;101759.44;;;4.16;100.00
32320;BME280;19080;51.750;5.888;2023-04-26T05:52:04;101754.22;;;4.33;100.00
32320;BME280;19080;51.750;5.888;2023-04-26T05:54:31;101678.47;;;4.09;100.00
32320;BME280;19080;51.750;5.888;2023-04-26T05:56:57;101685.63;;;4.28;100.00
32320;BME280;19080;51.750;5.888;2023-04-26T05:59:26;101754.97;;;4.79;100.00
32320;BME280;19080;51.750;5.888;2023-04-26T06:01:53;101746.41;;;4.83;100.00
32320;BME280;19080;51.750;5.888;2023-04-26T06:04:20;101760.34;;;5.14;100.00
32320;BME280;19080;51.750;5.888;2023-04-26T06:06:59;101744.72;;;5.17;100.00
32320;BME280;19080;51.750;5.888;2023-04-26T06:09:26;101756.91;;;5.33;100.00
32320;BME280;19080;51.750;5.888;2023-04-26T06:11:52;101765.34;;;5.44;100.00
32320;BME280;19080;51.750;5.888;2023-04-26T06:14:19;101753.00;;;5.43;100.00
32320;BME280;19080;51.750;5.888;2023-04-26T06:16:57;101771.00;;;5.51;100.00
32320;BME280;19080;51.750;5.888;2023-04-26T06:19:26;101699.19;;;5.02;100.00
32320;BME280;19080;51.750;5.888;2023-04-26T06:21:52;101749.75;;;5.31;100.00
32320;BME280;19080;51.750;5.888;2023-04-26T06:24:22;101759.91;;;5.41;100.00
32320;BME280;19080;51.750;5.888;2023-04-26T06:26:50;101746.38;;;5.51;100.00
32320;BME280;19080;51.750;5.888;2023-04-26T06:29:17;101743.31;;;5.77;100.00
32320;BME280;19080;51.750;5.888;2023-04-26T06:31:45;101727.75;;;6.00;100.00
32320;BME280;19080;51.750;5.888;2023-04-26T06:34:13;101762.53;;;6.67;100.00
32320;BME280;19080;51.750;5.888;2023-04-26T06:36:40;101737.66;;;6.62;100.00
32320;BME280;19080;51.750;5.888;2023-04-26T06:39:07;101736.84;;;7.03;100.00
32320;BME280;19080;51.750;5.888;2023-04-26T06:41:34;101753.94;;;7.73;100.00
32320;BME280;19080;51.750;5.888;2023-04-26T06:44:00;101745.19;;;7.74;100.00
32320;BME280;19080;51.750;5.888;2023-04-26T06:46:29;101743.66;;;8.02;100.00
32320;BME280;19080;51.750;5.888;2023-04-26T06:48:56;101736.13;;;8.81;100.00
32320;BME280;19080;51.750;5.888;2023-04-26T06:51:23;101772.72;;;9.42;100.00
32320;BME280;19080;51.750;5.888;2023-04-26T06:53:50;101767.72;;;9.76;100.00
32320;BME280;19080;51.750;5.888;2023-04-26T06:56:18;101763.94;;;10.22;100.00
32320;BME280;19080;51.750;5.888;2023-04-26T06:59:02;101709.06;;;9.94;100.00
32320;BME280;19080;51.750;5.888;2023-04-26T07:01:30;101705.47;;;9.92;100.00
32320;BME280;19080;51.750;5.888;2023-04-26T07:04:00;101786.03;;;10.51;100.00
32320;BME280;19080;51.750;5.888;2023-04-26T07:06:29;101757.81;;;10.55;100.00
32320;BME280;19080;51.750;5.888;2023-04-26T07:08:59;101736.31;;;10.46;100.00
32320;BME280;19080;51.750;5.888;2023-04-26T07:11:28;101782.63;;;10.85;100.00
32320;BME280;19080;51.750;5.888;2023-04-26T07:13:54;101778.53;;;10.96;100.00
32320;BME280;19080;51.750;5.888;2023-04-26T07:16:22;101692.75;;;10.69;100.00
32320;BME280;19080;51.750;5.888;2023-04-26T07:18:49;101788.28;;;11.29;100.00
32320;BME280;19080;51.750;5.888;2023-04-26T07:21:17;101774.41;;;11.07;100.00
32320;BME280;19080;51.750;5.888;2023-04-26T07:23:43;101773.03;;;10.90;100.00
32320;BME280;19080;51.750;5.888;2023-04-26T07:26:10;101693.13;;;10.51;100.00
32320;BME280;19080;51.750;5.888;2023-04-26T07:28:37;101779.38;;;11.27;100.00
32320;BME280;19080;51.750;5.888;2023-04-26T07:31:04;101722.69;;;11.28;100.00
32320;BME280;19080;51.750;5.888;2023-04-26T07:33:34;101773.75;;;11.81;100.00
32320;BME280;19080;51.750;5.888;2023-04-26T07:36:01;101682.38;;;11.44;90.05
32320;BME280;19080;51.750;5.888;2023-04-26T07:38:27;101748.44;;;11.63;89.26
32320;BME280;19080;51.750;5.888;2023-04-26T07:40:54;101698.00;;;11.32;90.98
32320;BME280;19080;51.750;5.888;2023-04-26T07:43:22;101774.03;;;11.93;93.74
32320;BME280;19080;51.750;5.888;2023-04-26T07:45:48;101764.19;;;11.89;93.22
32320;BME280;19080;51.750;5.888;2023-04-26T07:48:15;101763.47;;;11.96;87.87
32320;BME280;19080;51.750;5.888;2023-04-26T07:50:42;101769.28;;;12.17;86.05
32320;BME280;19080;51.750;5.888;2023-04-26T07:53:09;101654.13;;;11.49;80.44
32320;BME280;19080;51.750;5.888;2023-04-26T07:55:36;101731.94;;;12.13;80.51
32320;BME280;19080;51.750;5.888;2023-04-26T07:58:03;101676.06;;;11.77;74.65
32320;BME280;19080;51.750;5.888;2023-04-26T08:00:31;101761.72;;;12.35;74.23
32320;BME280;19080;51.750;5.888;2023-04-26T08:02:58;101755.16;;;12.21;70.55
32320;BME280;19080;51.750;5.888;2023-04-26T08:05:25;101762.31;;;12.24;69.72
32320;BME280;19080;51.750;5.888;2023-04-26T08:07:53;101756.69;;;12.49;65.64
32320;BME280;19080;51.750;5.888;2023-04-26T08:10:20;101740.03;;;12.19;64.49
32320;BME280;19080;51.750;5.888;2023-04-26T08:12:46;101748.72;;;12.10;63.14
32320;BME280;19080;51.750;5.888;2023-04-26T08:15:13;101696.13;;;11.62;64.16
32320;BME280;19080;51.750;5.888;2023-04-26T08:17:40;101755.22;;;11.85;64.50
32320;BME280;19080;51.750;5.888;2023-04-26T08:20:07;101775.47;;;12.16;65.16
32320;BME280;19080;51.750;5.888;2023-04-26T08:22:35;101721.69;;;11.57;67.53
32320;BME280;19080;51.750;5.888;2023-04-26T08:25:02;101791.88;;;11.31;63.33
32320;BME280;19080;51.750;5.888;2023-04-26T08:27:30;101795.78;;;11.12;64.09
32320;BME280;19080;51.750;5.888;2023-04-26T08:29:57;101760.00;;;11.31;64.24
32320;BME280;19080;51.750;5.888;2023-04-26T08:32:23;101762.34;;;11.53;65.87
32320;BME280;19080;51.750;5.888;2023-04-26T08:34:50;101771.50;;;11.97;63.85
32320;BME280;19080;51.750;5.888;2023-04-26T08:37:17;101743.47;;;12.13;62.24
32320;BME280;19080;51.750;5.888;2023-04-26T08:39:43;101785.56;;;12.70;60.27
32320;BME280;19080;51.750;5.888;2023-04-26T08:42:15;101782.47;;;12.92;57.10
32320;BME280;19080;51.750;5.888;2023-04-26T08:44:43;101762.88;;;12.89;56.25
32320;BME280;19080;51.750;5.888;2023-04-26T08:47:43;101786.13;;;12.97;56.39
32320;BME280;19080;51.750;5.888;2023-04-26T08:50:12;101767.94;;;13.19;56.20
32320;BME280;19080;51.750;5.888;2023-04-26T08:52:41;101705.34;;;13.00;54.11
32320;BME280;19080;51.750;5.888;2023-04-26T08:55:08;101777.31;;;13.45;53.39
32320;BME280;19080;51.750;5.888;2023-04-26T08:57:36;101769.91;;;13.29;52.74
32320;BME280;19080;51.750;5.888;2023-04-26T09:00:04;101702.13;;;12.73;52.96
32320;BME280;19080;51.750;5.888;2023-04-26T09:02:32;101780.41;;;12.78;53.76
32320;BME280;19080;51.750;5.888;2023-04-26T09:05:00;101760.91;;;12.39;54.89
32320;BME280;19080;51.750;5.888;2023-04-26T09:07:31;101681.09;;;12.00;55.51
32320;BME280;19080;51.750;5.888;2023-04-26T09:09:59;101753.59;;;12.29;55.52
32320;BME280;19080;51.750;5.888;2023-04-26T09:12:26;101746.97;;;12.51;55.81
32320;BME280;19080;51.750;5.888;2023-04-26T09:14:53;101751.59;;;12.60;54.85
32320;BME280;19080;51.750;5.888;2023-04-26T09:17:30;101767.72;;;13.10;53.64
32320;BME280;19080;51.750;5.888;2023-04-26T09:19:59;101681.47;;;12.61;53.83
32320;BME280;19080;51.750;5.888;2023-04-26T09:22:36;101746.41;;;13.10;52.27
32320;BME280;19080;51.750;5.888;2023-04-26T09:25:04;101737.56;;;13.12;52.58
32320;BME280;19080;51.750;5.888;2023-04-26T09:27:38;101740.25;;;13.60;52.81
32320;BME280;19080;51.750;5.888;2023-04-26T09:30:15;101760.06;;;14.33;49.95
32320;BME280;19080;51.750;5.888;2023-04-26T09:32:56;101703.00;;;14.27;49.57
32320;BME280;19080;51.750;5.888;2023-04-26T09:35:40;101741.78;;;15.38;48.46
32320;BME280;19080;51.750;5.888;2023-04-26T09:38:08;101761.78;;;15.80;47.54
32320;BME280;19080;51.750;5.888;2023-04-26T09:40:49;101745.19;;;16.28;45.65
32320;BME280;19080;51.750;5.888;2023-04-26T09:43:18;101747.13;;;16.52;45.00
32320;BME280;19080;51.750;5.888;2023-04-26T09:45:54;101738.22;;;16.62;43.45
32320;BME280;19080;51.750;5.888;2023-04-26T09:48:33;101734.91;;;17.24;40.14
32320;BME280;19080;51.750;5.888;2023-04-26T09:53:34;101671.34;;;18.05;39.19
32320;BME280;19080;51.750;5.888;2023-04-26T09:56:10;101756.44;;;17.97;35.71
32320;BME280;19080;51.750;5.888;2023-04-26T09:58:58;101693.69;;;16.95;38.95
32320;BME280;19080;51.750;5.888;2023-04-26T10:01:27;101685.69;;;17.14;40.24
32320;BME280;19080;51.750;5.888;2023-04-26T10:03:56;101727.72;;;17.06;39.11
32320;BME280;19080;51.750;5.888;2023-04-26T10:06:23;101748.31;;;17.16;39.18
32320;BME280;19080;51.750;5.888;2023-04-26T10:08:50;101725.69;;;16.53;40.37
32320;BME280;19080;51.750;5.888;2023-04-26T10:11:17;101731.72;;;16.14;40.09
32320;BME280;19080;51.750;5.888;2023-04-26T10:13:44;101668.53;;;15.24;40.78
32320;BME280;19080;51.750;5.888;2023-04-26T10:16:11;101738.19;;;15.35;42.33
32320;BME280;19080;51.750;5.888;2023-04-26T10:18:37;101738.25;;;15.41;42.89
32320;BME280;19080;51.750;5.888;2023-04-26T10:21:10;101758.81;;;15.48;41.39
32320;BME280;19080;51.750;5.888;2023-04-26T10:23:39;101752.84;;;14.91;42.68
32320;BME280;19080;51.750;5.888;2023-04-26T10:26:06;101727.00;;;14.90;43.38
32320;BME280;19080;51.750;5.888;2023-04-26T10:28:53;101748.13;;;15.49;43.87
32320;BME280;19080;51.750;5.888;2023-04-26T10:34:36;101732.41;;;15.86;43.16
32320;BME280;19080;51.750;5.888;2023-04-26T10:37:13;101722.53;;;15.82;43.43
32320;BME280;19080;51.750;5.888;2023-04-26T10:39:42;101738.38;;;16.88;40.86
32320;BME280;19080;51.750;5.888;2023-04-26T10:42:24;101743.91;;;17.96;40.86
32320;BME280;19080;51.750;5.888;2023-04-26T10:44:54;101719.22;;;19.27;36.64
32320;BME280;19080;51.750;5.888;2023-04-26T10:47:33;101686.00;;;19.31;35.00
32320;BME280;19080;51.750;5.888;2023-04-26T10:50:10;101705.16;;;20.03;34.20
32320;BME280;19080;51.750;5.888;2023-04-26T10:58:41;101717.00;;;17.12;36.31
32320;BME280;19080;51.750;5.888;2023-04-26T11:01:18;101711.59;;;16.99;35.44
32320;BME280;19080;51.750;5.888;2023-04-26T11:04:12;101730.09;;;16.44;35.99
32320;BME280;19080;51.750;5.888;2023-04-26T11:06:47;101698.47;;;15.82;36.87
32320;BME280;19080;51.750;5.888;2023-04-26T11:09:37;101739.44;;;15.75;38.91
32320;BME280;19080;51.750;5.888;2023-04-26T11:12:12;101732.06;;;15.46;38.55
32320;BME280;19080;51.750;5.888;2023-04-26T11:14:43;101725.22;;;14.89;39.58
32320;BME280;19080;51.750;5.888;2023-04-26T11:17:11;101731.28;;;14.76;41.24
32320;BME280;19080;51.750;5.888;2023-04-26T11:19:40;101710.84;;;14.80;40.50
32320;BME280;19080;51.750;5.888;2023-04-26T11:22:07;101696.19;;;15.26;39.81
32320;BME280;19080;51.750;5.888;2023-04-26T11:24:34;101719.38;;;15.27;40.42
32320;BME280;19080;51.750;5.888;2023-04-26T11:27:10;101730.69;;;15.02;40.65
32320;BME280;19080;51.750;5.888;2023-04-26T11:29:37;101722.28;;;14.68;41.92
32320;BME280;19080;51.750;5.888;2023-04-26T11:32:04;101715.94;;;14.60;41.07
32320;BME280;19080;51.750;5.888;2023-04-26T11:34:35;101709.53;;;14.46;43.08
32320;BME280;19080;51.750;5.888;2023-04-26T11:37:04;101649.38;;;14.10;42.97
32320;BME280;19080;51.750;5.888;2023-04-26T11:39:35;101709.38;;;14.37;42.58
32320;BME280;19080;51.750;5.888;2023-04-26T11:42:06;101724.03;;;14.04;43.14
32320;BME280;19080;51.750;5.888;2023-04-26T11:44:33;101690.06;;;13.94;43.06
32320;BME280;19080;51.750;5.888;2023-04-26T11:47:00;101631.56;;;13.47;43.01
32320;BME280;19080;51.750;5.888;2023-04-26T11:49:30;101698.72;;;13.76;43.51
32320;BME280;19080;51.750;5.888;2023-04-26T11:51:58;101698.88;;;13.88;42.90
32320;BME280;19080;51.750;5.888;2023-04-26T11:54:35;101717.53;;;13.84;43.07
32320;BME280;19080;51.750;5.888;2023-04-26T11:57:13;101696.16;;;13.82;43.30
32320;BME280;19080;51.750;5.888;2023-04-26T11:59:43;101709.88;;;14.10;43.01
32320;BME280;19080;51.750;5.888;2023-04-26T12:02:10;101701.41;;;14.41;42.11
32320;BME280;19080;51.750;5.888;2023-04-26T12:04:37;101694.56;;;14.58;41.45
32320;BME280;19080;51.750;5.888;2023-04-26T12:07:07;101712.47;;;14.67;42.28
32320;BME280;19080;51.750;5.888;2023-04-26T12:09:39;101708.25;;;14.87;41.60
32320;BME280;19080;51.750;5.888;2023-04-26T12:12:06;101700.44;;;15.07;41.61
32320;BME280;19080;51.750;5.888;2023-04-26T12:14:38;101611.81;;;14.66;41.35
32320;BME280;19080;51.750;5.888;2023-04-26T12:17:05;101722.88;;;15.20;40.63
32320;BME280;19080;51.750;5.888;2023-04-26T12:19:36;101605.41;;;14.52;40.71
32320;BME280;19080;51.750;5.888;2023-04-26T12:22:03;101699.59;;;15.10;41.25
32320;BME280;19080;51.750;5.888;2023-04-26T12:24:31;101722.84;;;15.17;41.67
32320;BME280;19080;51.750;5.888;2023-04-26T12:27:00;101725.50;;;15.15;40.47
32320;BME280;19080;51.750;5.888;2023-04-26T12:29:29;101642.28;;;14.83;39.93
32320;BME280;19080;51.750;5.888;2023-04-26T12:31:58;101704.72;;;14.88;39.94
32320;BME280;19080;51.750;5.888;2023-04-26T12:34:25;101707.09;;;14.64;40.55
32320;BME280;19080;51.750;5.888;2023-04-26T12:36:51;101686.50;;;14.57;41.67
32320;BME280;19080;51.750;5.888;2023-04-26T12:39:18;101674.13;;;14.63;43.13
32320;BME280;19080;51.750;5.888;2023-04-26T12:41:45;101711.63;;;14.71;42.40
32320;BME280;19080;51.750;5.888;2023-04-26T12:44:12;101723.47;;;14.26;41.04
32320;BME280;19080;51.750;5.888;2023-04-26T12:46:39;101640.53;;;13.52;43.39
32320;BME280;19080;51.750;5.888;2023-04-26T12:49:06;101639.31;;;13.32;44.48
32320;BME280;19080;51.750;5.888;2023-04-26T12:51:33;101708.59;;;13.82;44.76
32320;BME280;19080;51.750;5.888;2023-04-26T12:53:59;101713.72;;;14.30;45.05
32320;BME280;19080;51.750;5.888;2023-04-26T12:56:28;101719.81;;;14.86;44.82
32320;BME280;19080;51.750;5.888;2023-04-26T12:58:54;101680.75;;;14.99;42.52
32320;BME280;19080;51.750;5.888;2023-04-26T13:01:21;101693.84;;;15.64;42.47
32320;BME280;19080;51.750;5.888;2023-04-26T13:03:48;101677.53;;;16.70;41.51
32320;BME280;19080;51.750;5.888;2023-04-26T13:06:15;101704.47;;;17.16;39.63
32320;BME280;19080;51.750;5.888;2023-04-26T13:08:42;101696.44;;;17.51;40.28